Estación Meteorológica Peña el Pijo (Robertgarden) [ 02/02/23 21:36:56 CET ]

Fecha Hora Presion(HPa) Temp (°C) Humedad % Rocio (°C) Viento ( m/s) Direccion Lluvia 1Hora(mm) Lluvia 24H(mm) LLuvia Total(mm)
2012-Jul-24 01:01:18 1011.700 18.0 71 12.7         167.83
2012-Jul-24 02:01:13 1011.500 17.0 74 12.3         167.83
2012-Jul-24 03:03:12 1011.100 15.9 77 11.9         167.83
2012-Jul-24 04:01:12 1011.000 14.9 79 11.3         167.83
2012-Jul-24 05:01:12 1010.800 14.3 81 11.1         167.83
2012-Jul-24 06:01:18 1010.900 13.4 82 10.4         167.83
2012-Jul-24 07:01:16 1011.300 13.1 84 10.4         167.83
2012-Jul-24 08:01:16 1011.400 13.7 85 11.2         167.83
2012-Jul-24 09:01:17 1011.500 17.8 70 12.3         167.83
2012-Jul-24 10:01:16 1011.200 21.3 58 12.7         167.83
2012-Jul-24 11:01:17 1010.700 24.5 47 12.4         167.83
2012-Jul-24 12:01:14 1010.500 28.4 39 13.1         167.83
2012-Jul-24 13:01:14 1010.200 30.3 35 13.1         167.83
2012-Jul-24 14:01:15 1010.100 30.8 33 12.6 2.3 WNW     167.83
2012-Jul-24 15:01:17 1009.600 31.3 32 12.6 4.1 ENE     167.83
2012-Jul-24 16:01:13 1009.600 28.7 34 11.2         167.83
2012-Jul-24 17:01:17 1009.600 31.4 32 12.7         167.83
2012-Jul-24 18:01:18 1009.100 31.3 31 12.1 1.3 NE     167.83
2012-Jul-24 19:01:24 1009.100 30.4 32 11.8 2.2 NE     167.83
2012-Jul-24 20:01:11 1009.500 27.9 37 11.8 1.4 NE     167.83
2012-Jul-24 21:01:18 1009.700 25.6 41 11.4         167.83
2012-Jul-24 22:01:13 1010.600 23.1 44 10.1         167.83
2012-Jul-24 23:01:16 1011.500 20.8 48 9.4         167.83

Temperatura Máxima:31°    Temperatura Mínima:13°
Presión Máxima:1011.700 Hpa    Presión Mínima:1009.100 Hpa


Volver